Pine Grove Furnace, Pennsylvania
Current Conditions -  °F | °C
As of 8:53 AM on Saturday 25 Oct 2014 (Local Time) from KTHV Reporting Station
Clear Clear  
Wind Chill: 12°   Ceiling: Unl
Heat Index: 12°   Visibility: 10mi
Dew Point:   Wind: 6mph
Humidity: 64%   Direction: 280°W
Pressure: 29.94"   Gusts: NA
Location:  40.0362°N, 77.1908°W
Report Text: KTHV 251253Z AUTO 28005KT 10SM CLR 12/06 A2994 RMK AO2 SLP140 T01220056
Loading
Personal Weather Stations






























Interactive Weather Map
Tropical Storm Tracking
New forecast layout! Learn more

10-Day Weather Forecast

Advertisements
Track Severe Weather on mobile